sensor_id;sensor_type;location;lat;lon;timestamp;temperature;humidity
7720;DHT22;3902;49.474;8.616;2023-09-19T00:01:06;19.50;99.90
7720;DHT22;3902;49.474;8.616;2023-09-19T00:03:37;19.40;99.90
7720;DHT22;3902;49.474;8.616;2023-09-19T00:06:06;19.40;99.90
7720;DHT22;3902;49.474;8.616;2023-09-19T00:08:33;19.40;99.90
7720;DHT22;3902;49.474;8.616;2023-09-19T00:10:59;19.30;99.90
7720;DHT22;3902;49.474;8.616;2023-09-19T00:13:31;19.30;99.90
7720;DHT22;3902;49.474;8.616;2023-09-19T00:15:57;19.30;99.90
7720;DHT22;3902;49.474;8.616;2023-09-19T00:18:24;19.40;99.90
7720;DHT22;3902;49.474;8.616;2023-09-19T00:21:00;19.30;99.90
7720;DHT22;3902;49.474;8.616;2023-09-19T00:23:26;19.30;99.90
7720;DHT22;3902;49.474;8.616;2023-09-19T00:25:52;19.30;99.90
7720;DHT22;3902;49.474;8.616;2023-09-19T00:28:18;19.40;99.90
7720;DHT22;3902;49.474;8.616;2023-09-19T00:30:45;19.30;99.90
7720;DHT22;3902;49.474;8.616;2023-09-19T00:33:15;19.30;99.90
7720;DHT22;3902;49.474;8.616;2023-09-19T00:35:50;19.30;99.90
7720;DHT22;3902;49.474;8.616;2023-09-19T00:38:16;19.30;99.90
7720;DHT22;3902;49.474;8.616;2023-09-19T00:40:45;19.30;99.90
7720;DHT22;3902;49.474;8.616;2023-09-19T00:43:11;19.30;99.90
7720;DHT22;3902;49.474;8.616;2023-09-19T00:45:38;19.30;99.90
7720;DHT22;3902;49.474;8.616;2023-09-19T00:48:04;19.30;99.90
7720;DHT22;3902;49.474;8.616;2023-09-19T00:50:31;19.30;99.90
7720;DHT22;3902;49.474;8.616;2023-09-19T00:52:58;19.30;99.90
7720;DHT22;3902;49.474;8.616;2023-09-19T00:55:25;19.30;99.90
7720;DHT22;3902;49.474;8.616;2023-09-19T00:57:51;19.30;99.90
7720;DHT22;3902;49.474;8.616;2023-09-19T01:00:18;19.30;99.90
7720;DHT22;3902;49.474;8.616;2023-09-19T01:02:45;19.30;99.90
7720;DHT22;3902;49.474;8.616;2023-09-19T01:05:12;19.30;99.90
7720;DHT22;3902;49.474;8.616;2023-09-19T01:07:38;19.30;99.90
7720;DHT22;3902;49.474;8.616;2023-09-19T01:10:08;19.30;99.90
7720;DHT22;3902;49.474;8.616;2023-09-19T01:12:46;19.30;99.90
7720;DHT22;3902;49.474;8.616;2023-09-19T01:15:20;19.30;99.90
7720;DHT22;3902;49.474;8.616;2023-09-19T01:17:52;19.30;99.90
7720;DHT22;3902;49.474;8.616;2023-09-19T01:20:29;19.30;99.90
7720;DHT22;3902;49.474;8.616;2023-09-19T01:23:07;19.30;99.90
7720;DHT22;3902;49.474;8.616;2023-09-19T01:28:25;19.30;99.90
7720;DHT22;3902;49.474;8.616;2023-09-19T01:30:57;19.30;99.90
7720;DHT22;3902;49.474;8.616;2023-09-19T01:33:24;19.30;99.90
7720;DHT22;3902;49.474;8.616;2023-09-19T01:35:49;19.30;99.90
7720;DHT22;3902;49.474;8.616;2023-09-19T01:38:15;19.20;99.90
7720;DHT22;3902;49.474;8.616;2023-09-19T01:40:43;19.30;99.90
7720;DHT22;3902;49.474;8.616;2023-09-19T01:43:20;19.30;99.90
7720;DHT22;3902;49.474;8.616;2023-09-19T01:46:09;19.30;99.90
7720;DHT22;3902;49.474;8.616;2023-09-19T01:48:40;19.30;99.90
7720;DHT22;3902;49.474;8.616;2023-09-19T01:51:09;19.30;99.90
7720;DHT22;3902;49.474;8.616;2023-09-19T01:53:59;19.20;99.90
7720;DHT22;3902;49.474;8.616;2023-09-19T01:56:34;19.30;99.90
7720;DHT22;3902;49.474;8.616;2023-09-19T01:59:08;19.30;99.90
7720;DHT22;3902;49.474;8.616;2023-09-19T02:01:34;19.20;99.90
7720;DHT22;3902;49.474;8.616;2023-09-19T02:04:03;19.20;99.90
7720;DHT22;3902;49.474;8.616;2023-09-19T02:06:29;19.10;99.90
7720;DHT22;3902;49.474;8.616;2023-09-19T02:08:55;19.10;99.90
7720;DHT22;3902;49.474;8.616;2023-09-19T02:11:21;19.10;99.90
7720;DHT22;3902;49.474;8.616;2023-09-19T02:13:46;19.20;99.90
7720;DHT22;3902;49.474;8.616;2023-09-19T02:16:12;19.10;99.90
7720;DHT22;3902;49.474;8.616;2023-09-19T02:18:38;19.10;99.90
7720;DHT22;3902;49.474;8.616;2023-09-19T02:21:04;19.20;99.90
7720;DHT22;3902;49.474;8.616;2023-09-19T02:23:32;19.20;99.90
7720;DHT22;3902;49.474;8.616;2023-09-19T02:25:59;19.20;99.90
7720;DHT22;3902;49.474;8.616;2023-09-19T02:28:26;19.10;99.90
7720;DHT22;3902;49.474;8.616;2023-09-19T02:30:59;19.10;99.90
7720;DHT22;3902;49.474;8.616;2023-09-19T02:33:24;19.10;99.90
7720;DHT22;3902;49.474;8.616;2023-09-19T02:35:55;19.10;99.90
7720;DHT22;3902;49.474;8.616;2023-09-19T02:38:23;19.10;99.90
7720;DHT22;3902;49.474;8.616;2023-09-19T02:40:50;19.00;99.90
7720;DHT22;3902;49.474;8.616;2023-09-19T02:43:15;19.00;99.90
7720;DHT22;3902;49.474;8.616;2023-09-19T02:45:42;19.10;99.90
7720;DHT22;3902;49.474;8.616;2023-09-19T02:48:08;19.10;99.90
7720;DHT22;3902;49.474;8.616;2023-09-19T02:50:33;19.10;99.90
7720;DHT22;3902;49.474;8.616;2023-09-19T02:52:59;19.10;99.90
7720;DHT22;3902;49.474;8.616;2023-09-19T02:55:25;19.10;99.90
7720;DHT22;3902;49.474;8.616;2023-09-19T02:57:53;19.20;99.90
7720;DHT22;3902;49.474;8.616;2023-09-19T03:00:20;19.20;99.90
7720;DHT22;3902;49.474;8.616;2023-09-19T03:02:47;19.20;99.90
7720;DHT22;3902;49.474;8.616;2023-09-19T03:05:13;19.30;99.90
7720;DHT22;3902;49.474;8.616;2023-09-19T03:07:39;19.30;99.90
7720;DHT22;3902;49.474;8.616;2023-09-19T03:10:08;19.30;99.90
7720;DHT22;3902;49.474;8.616;2023-09-19T03:12:33;19.30;99.90
7720;DHT22;3902;49.474;8.616;2023-09-19T03:14:59;19.30;99.90
7720;DHT22;3902;49.474;8.616;2023-09-19T03:17:25;19.30;99.90
7720;DHT22;3902;49.474;8.616;2023-09-19T03:19:50;19.20;99.90
7720;DHT22;3902;49.474;8.616;2023-09-19T03:22:16;19.20;99.90
7720;DHT22;3902;49.474;8.616;2023-09-19T03:24:42;19.10;99.90
7720;DHT22;3902;49.474;8.616;2023-09-19T03:27:09;19.10;99.90
7720;DHT22;3902;49.474;8.616;2023-09-19T03:29:35;19.10;99.90
7720;DHT22;3902;49.474;8.616;2023-09-19T03:32:01;19.10;99.90
7720;DHT22;3902;49.474;8.616;2023-09-19T03:34:27;19.20;99.90
7720;DHT22;3902;49.474;8.616;2023-09-19T03:36:52;19.10;99.90
7720;DHT22;3902;49.474;8.616;2023-09-19T03:39:18;19.00;99.90
7720;DHT22;3902;49.474;8.616;2023-09-19T03:41:44;19.00;99.90
7720;DHT22;3902;49.474;8.616;2023-09-19T03:44:11;18.90;99.90
7720;DHT22;3902;49.474;8.616;2023-09-19T03:46:36;19.00;99.90
7720;DHT22;3902;49.474;8.616;2023-09-19T03:49:02;18.90;99.90
7720;DHT22;3902;49.474;8.616;2023-09-19T03:51:28;18.90;99.90
7720;DHT22;3902;49.474;8.616;2023-09-19T03:53:53;18.90;99.90
7720;DHT22;3902;49.474;8.616;2023-09-19T03:56:19;18.90;99.90
7720;DHT22;3902;49.474;8.616;2023-09-19T03:58:44;18.90;99.90
7720;DHT22;3902;49.474;8.616;2023-09-19T04:01:10;18.90;99.90
7720;DHT22;3902;49.474;8.616;2023-09-19T04:03:35;18.90;99.90
7720;DHT22;3902;49.474;8.616;2023-09-19T04:06:15;18.80;99.90
7720;DHT22;3902;49.474;8.616;2023-09-19T04:08:41;18.80;99.90
7720;DHT22;3902;49.474;8.616;2023-09-19T04:11:07;18.80;99.90
7720;DHT22;3902;49.474;8.616;2023-09-19T04:13:33;18.80;99.90
7720;DHT22;3902;49.474;8.616;2023-09-19T04:15:58;18.70;99.90
7720;DHT22;3902;49.474;8.616;2023-09-19T04:18:25;18.80;99.90
7720;DHT22;3902;49.474;8.616;2023-09-19T04:20:50;18.70;99.90
7720;DHT22;3902;49.474;8.616;2023-09-19T04:23:16;18.70;99.90
7720;DHT22;3902;49.474;8.616;2023-09-19T04:25:42;18.60;99.90
7720;DHT22;3902;49.474;8.616;2023-09-19T04:28:08;18.60;99.90
7720;DHT22;3902;49.474;8.616;2023-09-19T04:30:35;18.60;99.90
7720;DHT22;3902;49.474;8.616;2023-09-19T04:33:01;18.50;99.90
7720;DHT22;3902;49.474;8.616;2023-09-19T04:35:27;18.50;99.90
7720;DHT22;3902;49.474;8.616;2023-09-19T04:37:57;18.40;99.90
7720;DHT22;3902;49.474;8.616;2023-09-19T04:40:22;18.40;99.90
7720;DHT22;3902;49.474;8.616;2023-09-19T04:42:56;18.30;99.90
7720;DHT22;3902;49.474;8.616;2023-09-19T04:45:22;18.40;99.90
7720;DHT22;3902;49.474;8.616;2023-09-19T04:47:48;18.40;99.90
7720;DHT22;3902;49.474;8.616;2023-09-19T04:50:14;18.40;99.90
7720;DHT22;3902;49.474;8.616;2023-09-19T04:52:40;18.40;99.90
7720;DHT22;3902;49.474;8.616;2023-09-19T04:55:08;18.40;99.90
7720;DHT22;3902;49.474;8.616;2023-09-19T04:57:34;18.40;99.90
7720;DHT22;3902;49.474;8.616;2023-09-19T05:00:02;18.40;99.90
7720;DHT22;3902;49.474;8.616;2023-09-19T05:02:31;18.40;99.90
7720;DHT22;3902;49.474;8.616;2023-09-19T05:04:57;18.30;99.90
7720;DHT22;3902;49.474;8.616;2023-09-19T05:07:25;18.40;99.90
7720;DHT22;3902;49.474;8.616;2023-09-19T05:09:51;18.30;99.90
7720;DHT22;3902;49.474;8.616;2023-09-19T05:12:16;18.40;99.90
7720;DHT22;3902;49.474;8.616;2023-09-19T05:14:45;18.30;99.90
7720;DHT22;3902;49.474;8.616;2023-09-19T05:17:10;18.30;99.90
7720;DHT22;3902;49.474;8.616;2023-09-19T05:19:36;18.30;99.90
7720;DHT22;3902;49.474;8.616;2023-09-19T05:22:02;18.30;99.90
7720;DHT22;3902;49.474;8.616;2023-09-19T05:24:29;18.30;99.90
7720;DHT22;3902;49.474;8.616;2023-09-19T05:26:56;18.30;99.90
7720;DHT22;3902;49.474;8.616;2023-09-19T05:29:22;18.20;99.90
7720;DHT22;3902;49.474;8.616;2023-09-19T05:31:47;18.30;99.90
7720;DHT22;3902;49.474;8.616;2023-09-19T05:34:15;18.30;99.90
7720;DHT22;3902;49.474;8.616;2023-09-19T05:36:40;18.30;99.90
7720;DHT22;3902;49.474;8.616;2023-09-19T05:39:07;18.30;99.90
7720;DHT22;3902;49.474;8.616;2023-09-19T05:41:35;18.30;99.90
7720;DHT22;3902;49.474;8.616;2023-09-19T05:44:02;18.30;99.90
7720;DHT22;3902;49.474;8.616;2023-09-19T05:46:28;18.30;99.90
7720;DHT22;3902;49.474;8.616;2023-09-19T05:48:55;18.30;99.90
7720;DHT22;3902;49.474;8.616;2023-09-19T05:51:22;18.30;99.90
7720;DHT22;3902;49.474;8.616;2023-09-19T05:53:48;18.30;99.90
7720;DHT22;3902;49.474;8.616;2023-09-19T05:56:14;18.30;99.90
7720;DHT22;3902;49.474;8.616;2023-09-19T05:58:40;18.30;99.90
7720;DHT22;3902;49.474;8.616;2023-09-19T06:01:09;18.30;99.90
7720;DHT22;3902;49.474;8.616;2023-09-19T06:03:35;18.30;99.90
7720;DHT22;3902;49.474;8.616;2023-09-19T06:06:01;18.30;99.90
7720;DHT22;3902;49.474;8.616;2023-09-19T06:08:27;18.30;99.90
7720;DHT22;3902;49.474;8.616;2023-09-19T06:10:53;18.30;99.90
7720;DHT22;3902;49.474;8.616;2023-09-19T06:13:19;18.40;99.90
7720;DHT22;3902;49.474;8.616;2023-09-19T06:15:45;18.40;99.90
7720;DHT22;3902;49.474;8.616;2023-09-19T06:18:12;18.40;99.90
7720;DHT22;3902;49.474;8.616;2023-09-19T06:20:47;18.40;99.90
7720;DHT22;3902;49.474;8.616;2023-09-19T06:23:13;18.50;99.90
7720;DHT22;3902;49.474;8.616;2023-09-19T06:25:39;18.50;99.90
7720;DHT22;3902;49.474;8.616;2023-09-19T06:28:04;18.50;99.90
7720;DHT22;3902;49.474;8.616;2023-09-19T06:30:31;18.50;99.90
7720;DHT22;3902;49.474;8.616;2023-09-19T06:32:58;18.60;99.90
7720;DHT22;3902;49.474;8.616;2023-09-19T06:35:24;18.60;99.90
7720;DHT22;3902;49.474;8.616;2023-09-19T06:37:51;18.60;99.90
7720;DHT22;3902;49.474;8.616;2023-09-19T06:40:18;18.60;99.90
7720;DHT22;3902;49.474;8.616;2023-09-19T06:42:51;18.60;99.90
7720;DHT22;3902;49.474;8.616;2023-09-19T06:45:21;18.50;99.90
7720;DHT22;3902;49.474;8.616;2023-09-19T06:47:51;18.50;99.90
7720;DHT22;3902;49.474;8.616;2023-09-19T06:50:21;18.60;99.90
7720;DHT22;3902;49.474;8.616;2023-09-19T06:52:49;18.60;99.90
7720;DHT22;3902;49.474;8.616;2023-09-19T06:55:16;18.50;99.90
7720;DHT22;3902;49.474;8.616;2023-09-19T06:57:42;18.50;99.90
7720;DHT22;3902;49.474;8.616;2023-09-19T07:00:08;18.50;99.90
7720;DHT22;3902;49.474;8.616;2023-09-19T07:02:41;18.40;99.90
7720;DHT22;3902;49.474;8.616;2023-09-19T07:05:07;18.30;99.90
7720;DHT22;3902;49.474;8.616;2023-09-19T07:07:32;18.30;99.90
7720;DHT22;3902;49.474;8.616;2023-09-19T07:10:03;18.30;99.90
7720;DHT22;3902;49.474;8.616;2023-09-19T07:12:31;18.30;99.90
7720;DHT22;3902;49.474;8.616;2023-09-19T07:14:56;18.30;99.90
7720;DHT22;3902;49.474;8.616;2023-09-19T07:17:22;18.40;99.90
7720;DHT22;3902;49.474;8.616;2023-09-19T07:19:49;18.30;99.90
7720;DHT22;3902;49.474;8.616;2023-09-19T07:22:15;18.30;99.90
7720;DHT22;3902;49.474;8.616;2023-09-19T07:24:41;18.30;99.90
7720;DHT22;3902;49.474;8.616;2023-09-19T07:27:07;18.40;99.90
7720;DHT22;3902;49.474;8.616;2023-09-19T07:29:32;18.40;99.90
7720;DHT22;3902;49.474;8.616;2023-09-19T07:31:58;18.40;99.90
7720;DHT22;3902;49.474;8.616;2023-09-19T07:34:23;18.40;99.90
7720;DHT22;3902;49.474;8.616;2023-09-19T07:36:49;18.40;99.90
7720;DHT22;3902;49.474;8.616;2023-09-19T07:39:15;18.50;99.90
7720;DHT22;3902;49.474;8.616;2023-09-19T07:41:41;18.40;99.90
7720;DHT22;3902;49.474;8.616;2023-09-19T07:44:07;18.40;99.90
7720;DHT22;3902;49.474;8.616;2023-09-19T07:46:33;18.40;99.90
7720;DHT22;3902;49.474;8.616;2023-09-19T07:48:58;18.50;99.90
7720;DHT22;3902;49.474;8.616;2023-09-19T07:51:24;18.50;99.90
7720;DHT22;3902;49.474;8.616;2023-09-19T07:53:49;18.50;99.90
7720;DHT22;3902;49.474;8.616;2023-09-19T07:56:15;18.60;99.90
7720;DHT22;3902;49.474;8.616;2023-09-19T07:58:41;18.60;99.90
7720;DHT22;3902;49.474;8.616;2023-09-19T08:01:09;18.70;99.90
7720;DHT22;3902;49.474;8.616;2023-09-19T08:03:36;18.70;99.90
7720;DHT22;3902;49.474;8.616;2023-09-19T08:06:06;18.70;99.90
7720;DHT22;3902;49.474;8.616;2023-09-19T08:08:35;18.70;99.90
7720;DHT22;3902;49.474;8.616;2023-09-19T08:11:05;18.70;99.90
7720;DHT22;3902;49.474;8.616;2023-09-19T08:13:37;18.80;99.90
7720;DHT22;3902;49.474;8.616;2023-09-19T08:16:04;18.80;99.90
7720;DHT22;3902;49.474;8.616;2023-09-19T08:18:30;18.80;99.90
7720;DHT22;3902;49.474;8.616;2023-09-19T08:20:55;18.80;99.90
7720;DHT22;3902;49.474;8.616;2023-09-19T08:23:23;18.80;99.90
7720;DHT22;3902;49.474;8.616;2023-09-19T08:25:49;18.90;99.90
7720;DHT22;3902;49.474;8.616;2023-09-19T08:28:15;18.80;99.90
7720;DHT22;3902;49.474;8.616;2023-09-19T08:30:45;18.90;99.90
7720;DHT22;3902;49.474;8.616;2023-09-19T08:33:11;19.00;99.90
7720;DHT22;3902;49.474;8.616;2023-09-19T08:35:37;19.00;99.90
7720;DHT22;3902;49.474;8.616;2023-09-19T08:38:05;19.00;99.90
7720;DHT22;3902;49.474;8.616;2023-09-19T08:40:32;19.10;99.90
7720;DHT22;3902;49.474;8.616;2023-09-19T08:42:58;19.10;99.90
7720;DHT22;3902;49.474;8.616;2023-09-19T08:45:25;19.10;99.90
7720;DHT22;3902;49.474;8.616;2023-09-19T08:50:51;19.00;99.90
7720;DHT22;3902;49.474;8.616;2023-09-19T08:53:30;19.00;99.90
7720;DHT22;3902;49.474;8.616;2023-09-19T08:55:59;19.10;99.90
7720;DHT22;3902;49.474;8.616;2023-09-19T08:58:34;19.20;99.90
7720;DHT22;3902;49.474;8.616;2023-09-19T09:01:06;19.20;99.90
7720;DHT22;3902;49.474;8.616;2023-09-19T09:03:33;19.30;99.90
7720;DHT22;3902;49.474;8.616;2023-09-19T09:06:00;19.40;99.90
7720;DHT22;3902;49.474;8.616;2023-09-19T09:08:27;19.40;99.90
7720;DHT22;3902;49.474;8.616;2023-09-19T09:10:54;19.50;99.90
7720;DHT22;3902;49.474;8.616;2023-09-19T09:13:20;19.50;99.90
7720;DHT22;3902;49.474;8.616;2023-09-19T09:15:47;19.50;99.90
7720;DHT22;3902;49.474;8.616;2023-09-19T09:18:13;19.40;99.90
7720;DHT22;3902;49.474;8.616;2023-09-19T09:20:39;19.40;99.90
7720;DHT22;3902;49.474;8.616;2023-09-19T09:23:04;19.40;99.90
7720;DHT22;3902;49.474;8.616;2023-09-19T09:25:53;19.40;99.90
7720;DHT22;3902;49.474;8.616;2023-09-19T09:28:29;19.30;99.90
7720;DHT22;3902;49.474;8.616;2023-09-19T09:30:56;19.30;99.90
7720;DHT22;3902;49.474;8.616;2023-09-19T09:33:24;19.40;99.90
7720;DHT22;3902;49.474;8.616;2023-09-19T09:35:54;19.50;99.90
7720;DHT22;3902;49.474;8.616;2023-09-19T09:38:23;19.50;99.90
7720;DHT22;3902;49.474;8.616;2023-09-19T09:40:54;19.70;99.90
7720;DHT22;3902;49.474;8.616;2023-09-19T09:43:36;19.70;99.90
7720;DHT22;3902;49.474;8.616;2023-09-19T09:46:07;19.80;99.90
7720;DHT22;3902;49.474;8.616;2023-09-19T09:48:56;19.80;99.90
7720;DHT22;3902;49.474;8.616;2023-09-19T09:51:51;19.80;99.90
7720;DHT22;3902;49.474;8.616;2023-09-19T09:54:25;19.90;99.90
7720;DHT22;3902;49.474;8.616;2023-09-19T09:57:00;19.90;99.90
7720;DHT22;3902;49.474;8.616;2023-09-19T10:02:30;20.00;99.90
7720;DHT22;3902;49.474;8.616;2023-09-19T10:05:19;20.00;99.90
7720;DHT22;3902;49.474;8.616;2023-09-19T10:07:46;20.10;99.90
7720;DHT22;3902;49.474;8.616;2023-09-19T10:10:35;20.10;99.90
7720;DHT22;3902;49.474;8.616;2023-09-19T10:13:20;20.20;99.90
7720;DHT22;3902;49.474;8.616;2023-09-19T10:15:50;20.10;99.90
7720;DHT22;3902;49.474;8.616;2023-09-19T10:18:24;20.00;99.90
7720;DHT22;3902;49.474;8.616;2023-09-19T10:20:51;20.00;99.90
7720;DHT22;3902;49.474;8.616;2023-09-19T10:23:18;20.10;99.90
7720;DHT22;3902;49.474;8.616;2023-09-19T10:25:48;20.10;99.90
7720;DHT22;3902;49.474;8.616;2023-09-19T10:28:16;20.20;99.90
7720;DHT22;3902;49.474;8.616;2023-09-19T10:30:46;20.30;99.90
7720;DHT22;3902;49.474;8.616;2023-09-19T10:33:17;20.40;99.90
7720;DHT22;3902;49.474;8.616;2023-09-19T10:35:48;20.50;99.90
7720;DHT22;3902;49.474;8.616;2023-09-19T10:38:19;20.50;99.90
7720;DHT22;3902;49.474;8.616;2023-09-19T10:40:51;20.50;99.90
7720;DHT22;3902;49.474;8.616;2023-09-19T10:43:19;20.50;99.90
7720;DHT22;3902;49.474;8.616;2023-09-19T10:45:49;20.70;99.90
7720;DHT22;3902;49.474;8.616;2023-09-19T10:48:19;20.80;99.90
7720;DHT22;3902;49.474;8.616;2023-09-19T10:53:56;21.40;99.90
7720;DHT22;3902;49.474;8.616;2023-09-19T10:56:35;22.00;99.90
7720;DHT22;3902;49.474;8.616;2023-09-19T10:59:14;22.70;99.90
7720;DHT22;3902;49.474;8.616;2023-09-19T11:07:03;24.00;99.90
7720;DHT22;3902;49.474;8.616;2023-09-19T11:09:48;24.20;99.90
7720;DHT22;3902;49.474;8.616;2023-09-19T11:14:58;24.40;99.90
7720;DHT22;3902;49.474;8.616;2023-09-19T11:17:37;24.80;99.90
7720;DHT22;3902;49.474;8.616;2023-09-19T11:28:38;25.50;99.90
7720;DHT22;3902;49.474;8.616;2023-09-19T11:31:41;25.90;99.90
7720;DHT22;3902;49.474;8.616;2023-09-19T11:37:01;25.70;99.20
7720;DHT22;3902;49.474;8.616;2023-09-19T11:39:29;25.90;98.70
7720;DHT22;3902;49.474;8.616;2023-09-19T11:41:55;25.50;98.20
7720;DHT22;3902;49.474;8.616;2023-09-19T11:49:18;26.30;99.20
7720;DHT22;3902;49.474;8.616;2023-09-19T11:51:50;25.80;97.60
7720;DHT22;3902;49.474;8.616;2023-09-19T11:54:20;26.10;98.00
7720;DHT22;3902;49.474;8.616;2023-09-19T11:56:50;26.20;97.80
7720;DHT22;3902;49.474;8.616;2023-09-19T11:59:20;26.10;98.50
7720;DHT22;3902;49.474;8.616;2023-09-19T12:01:51;26.10;98.10
7720;DHT22;3902;49.474;8.616;2023-09-19T12:04:43;25.60;97.40
7720;DHT22;3902;49.474;8.616;2023-09-19T12:07:12;25.60;97.30
7720;DHT22;3902;49.474;8.616;2023-09-19T12:12:23;25.80;97.10
7720;DHT22;3902;49.474;8.616;2023-09-19T12:14:54;26.10;97.50
7720;DHT22;3902;49.474;8.616;2023-09-19T12:17:20;25.80;96.20
7720;DHT22;3902;49.474;8.616;2023-09-19T12:19:58;25.70;96.10
7720;DHT22;3902;49.474;8.616;2023-09-19T12:22:24;25.80;95.40
7720;DHT22;3902;49.474;8.616;2023-09-19T12:24:50;26.40;96.00
7720;DHT22;3902;49.474;8.616;2023-09-19T12:27:16;26.60;94.80
7720;DHT22;3902;49.474;8.616;2023-09-19T12:32:09;27.20;94.60
7720;DHT22;3902;49.474;8.616;2023-09-19T12:34:34;26.70;93.70
7720;DHT22;3902;49.474;8.616;2023-09-19T12:39:31;27.00;93.10
7720;DHT22;3902;49.474;8.616;2023-09-19T12:41:57;27.60;93.40
7720;DHT22;3902;49.474;8.616;2023-09-19T12:44:23;27.90;92.80
7720;DHT22;3902;49.474;8.616;2023-09-19T12:46:50;27.90;92.00
7720;DHT22;3902;49.474;8.616;2023-09-19T12:49:19;27.80;91.60
7720;DHT22;3902;49.474;8.616;2023-09-19T12:51:47;28.10;91.60
7720;DHT22;3902;49.474;8.616;2023-09-19T12:54:14;27.80;91.20
7720;DHT22;3902;49.474;8.616;2023-09-19T12:56:44;28.20;91.60
7720;DHT22;3902;49.474;8.616;2023-09-19T12:59:13;28.40;91.10
7720;DHT22;3902;49.474;8.616;2023-09-19T13:01:41;27.90;91.30
7720;DHT22;3902;49.474;8.616;2023-09-19T13:04:19;27.70;91.10
7720;DHT22;3902;49.474;8.616;2023-09-19T13:06:46;28.10;91.20
7720;DHT22;3902;49.474;8.616;2023-09-19T13:09:15;27.80;91.20
7720;DHT22;3902;49.474;8.616;2023-09-19T13:11:42;27.80;91.30
7720;DHT22;3902;49.474;8.616;2023-09-19T13:14:19;28.50;92.10
7720;DHT22;3902;49.474;8.616;2023-09-19T13:17:00;29.20;90.60
7720;DHT22;3902;49.474;8.616;2023-09-19T13:19:41;29.00;90.00
7720;DHT22;3902;49.474;8.616;2023-09-19T13:25:33;29.30;87.40
7720;DHT22;3902;49.474;8.616;2023-09-19T13:28:00;28.90;88.20
7720;DHT22;3902;49.474;8.616;2023-09-19T13:30:29;28.80;89.40
7720;DHT22;3902;49.474;8.616;2023-09-19T13:33:07;28.50;89.40
7720;DHT22;3902;49.474;8.616;2023-09-19T13:35:35;27.80;89.40
7720;DHT22;3902;49.474;8.616;2023-09-19T13:38:00;27.50;90.10
7720;DHT22;3902;49.474;8.616;2023-09-19T13:40:26;27.00;91.00
7720;DHT22;3902;49.474;8.616;2023-09-19T13:42:56;27.00;91.40
7720;DHT22;3902;49.474;8.616;2023-09-19T13:45:22;27.00;91.60
7720;DHT22;3902;49.474;8.616;2023-09-19T13:47:50;27.00;91.10
7720;DHT22;3902;49.474;8.616;2023-09-19T13:50:15;26.80;91.50
7720;DHT22;3902;49.474;8.616;2023-09-19T13:52:42;26.50;91.50
7720;DHT22;3902;49.474;8.616;2023-09-19T13:55:08;26.70;92.20
7720;DHT22;3902;49.474;8.616;2023-09-19T13:57:33;27.00;91.90
7720;DHT22;3902;49.474;8.616;2023-09-19T13:59:59;27.40;91.50
7720;DHT22;3902;49.474;8.616;2023-09-19T14:02:25;27.90;91.10
7720;DHT22;3902;49.474;8.616;2023-09-19T14:04:51;28.20;90.90
7720;DHT22;3902;49.474;8.616;2023-09-19T14:07:17;28.50;90.00
7720;DHT22;3902;49.474;8.616;2023-09-19T14:09:46;28.50;89.70
7720;DHT22;3902;49.474;8.616;2023-09-19T14:12:12;28.40;89.00
7720;DHT22;3902;49.474;8.616;2023-09-19T14:14:38;27.90;90.30
7720;DHT22;3902;49.474;8.616;2023-09-19T14:17:04;27.80;90.60
7720;DHT22;3902;49.474;8.616;2023-09-19T14:19:30;27.90;90.80
7720;DHT22;3902;49.474;8.616;2023-09-19T14:21:55;27.80;90.80
7720;DHT22;3902;49.474;8.616;2023-09-19T14:24:22;27.80;90.50
7720;DHT22;3902;49.474;8.616;2023-09-19T14:26:48;27.50;90.00
7720;DHT22;3902;49.474;8.616;2023-09-19T14:29:14;27.70;90.20
7720;DHT22;3902;49.474;8.616;2023-09-19T14:31:40;27.60;90.00
7720;DHT22;3902;49.474;8.616;2023-09-19T14:34:07;27.10;90.80
7720;DHT22;3902;49.474;8.616;2023-09-19T14:36:36;26.40;91.10
7720;DHT22;3902;49.474;8.616;2023-09-19T14:39:04;26.40;91.30
7720;DHT22;3902;49.474;8.616;2023-09-19T14:41:31;26.50;91.90
7720;DHT22;3902;49.474;8.616;2023-09-19T14:43:57;26.50;91.80
7720;DHT22;3902;49.474;8.616;2023-09-19T14:46:25;26.50;92.10
7720;DHT22;3902;49.474;8.616;2023-09-19T14:48:52;26.20;91.70
7720;DHT22;3902;49.474;8.616;2023-09-19T14:51:18;26.40;92.00
7720;DHT22;3902;49.474;8.616;2023-09-19T14:53:45;26.40;92.20
7720;DHT22;3902;49.474;8.616;2023-09-19T14:56:11;26.10;92.30
7720;DHT22;3902;49.474;8.616;2023-09-19T14:58:38;25.80;92.10
7720;DHT22;3902;49.474;8.616;2023-09-19T15:01:11;25.80;92.70
7720;DHT22;3902;49.474;8.616;2023-09-19T15:03:38;25.40;93.10
7720;DHT22;3902;49.474;8.616;2023-09-19T15:06:12;25.10;92.80
7720;DHT22;3902;49.474;8.616;2023-09-19T15:08:43;25.20;93.40
7720;DHT22;3902;49.474;8.616;2023-09-19T15:11:15;25.00;93.70
7720;DHT22;3902;49.474;8.616;2023-09-19T15:13:46;24.80;94.00
7720;DHT22;3902;49.474;8.616;2023-09-19T15:16:12;24.60;94.20
7720;DHT22;3902;49.474;8.616;2023-09-19T15:18:40;24.60;94.50
7720;DHT22;3902;49.474;8.616;2023-09-19T15:21:08;24.80;94.80
7720;DHT22;3902;49.474;8.616;2023-09-19T15:23:35;24.90;94.50
7720;DHT22;3902;49.474;8.616;2023-09-19T15:26:02;25.00;94.30
7720;DHT22;3902;49.474;8.616;2023-09-19T15:28:29;24.80;94.40
7720;DHT22;3902;49.474;8.616;2023-09-19T15:31:03;24.70;94.40
7720;DHT22;3902;49.474;8.616;2023-09-19T15:33:32;24.60;94.60
7720;DHT22;3902;49.474;8.616;2023-09-19T15:36:04;24.50;94.50
7720;DHT22;3902;49.474;8.616;2023-09-19T15:38:31;24.60;94.70
7720;DHT22;3902;49.474;8.616;2023-09-19T15:40:58;24.60;94.80
7720;DHT22;3902;49.474;8.616;2023-09-19T15:43:24;24.60;94.90
7720;DHT22;3902;49.474;8.616;2023-09-19T15:45:50;24.50;95.20
7720;DHT22;3902;49.474;8.616;2023-09-19T15:48:16;24.50;95.30
7720;DHT22;3902;49.474;8.616;2023-09-19T15:50:42;24.30;95.30
7720;DHT22;3902;49.474;8.616;2023-09-19T15:53:09;24.20;95.60
7720;DHT22;3902;49.474;8.616;2023-09-19T15:55:39;24.30;96.00
7720;DHT22;3902;49.474;8.616;2023-09-19T15:58:09;24.20;95.90
7720;DHT22;3902;49.474;8.616;2023-09-19T16:00:35;24.20;96.00
7720;DHT22;3902;49.474;8.616;2023-09-19T16:03:05;24.20;96.30
7720;DHT22;3902;49.474;8.616;2023-09-19T16:05:37;24.20;96.60
7720;DHT22;3902;49.474;8.616;2023-09-19T16:08:05;24.20;96.50
7720;DHT22;3902;49.474;8.616;2023-09-19T16:10:34;24.20;96.70
7720;DHT22;3902;49.474;8.616;2023-09-19T16:13:01;24.10;96.70
7720;DHT22;3902;49.474;8.616;2023-09-19T16:15:26;24.00;97.10
7720;DHT22;3902;49.474;8.616;2023-09-19T16:17:52;24.10;97.20
7720;DHT22;3902;49.474;8.616;2023-09-19T16:20:17;23.90;97.10
7720;DHT22;3902;49.474;8.616;2023-09-19T16:22:45;23.90;97.30
7720;DHT22;3902;49.474;8.616;2023-09-19T16:25:11;23.70;97.50
7720;DHT22;3902;49.474;8.616;2023-09-19T16:27:37;23.60;97.60
7720;DHT22;3902;49.474;8.616;2023-09-19T16:30:03;23.40;97.80
7720;DHT22;3902;49.474;8.616;2023-09-19T16:32:28;23.30;97.80
7720;DHT22;3902;49.474;8.616;2023-09-19T16:34:54;23.40;98.00
7720;DHT22;3902;49.474;8.616;2023-09-19T16:37:19;23.20;98.20
7720;DHT22;3902;49.474;8.616;2023-09-19T16:39:47;23.20;98.50
7720;DHT22;3902;49.474;8.616;2023-09-19T16:42:12;23.10;98.70
7720;DHT22;3902;49.474;8.616;2023-09-19T16:44:41;23.10;98.90
7720;DHT22;3902;49.474;8.616;2023-09-19T16:47:06;23.10;99.10
7720;DHT22;3902;49.474;8.616;2023-09-19T16:49:32;23.10;99.30
7720;DHT22;3902;49.474;8.616;2023-09-19T16:51:57;23.10;99.30
7720;DHT22;3902;49.474;8.616;2023-09-19T16:54:23;23.10;99.20
7720;DHT22;3902;49.474;8.616;2023-09-19T16:56:48;23.10;99.00